createdAt,value
2023-04-16T00:02:01.040Z,100203.31
2023-04-16T00:04:28.059Z,100199.03
2023-04-16T00:06:55.452Z,100196.34
2023-04-16T00:09:22.378Z,100199.03
2023-04-16T00:11:49.352Z,100202.47
2023-04-16T00:14:16.156Z,100198.94
2023-04-16T00:16:43.140Z,100196.28
2023-04-16T00:19:10.229Z,100195.38
2023-04-16T00:21:37.301Z,100200.63
2023-04-16T00:24:04.115Z,100191.94
2023-04-16T00:26:31.510Z,100197.16
2023-04-16T00:28:58.669Z,100207.53
2023-04-16T00:31:29.516Z,100195.47
2023-04-16T00:33:57.062Z,100198.06
2023-04-16T00:36:24.761Z,100195.50
2023-04-16T00:38:51.669Z,100199.81
2023-04-16T00:41:19.117Z,100198.94
2023-04-16T00:43:46.639Z,100202.38
2023-04-16T00:46:13.832Z,100210.13
2023-04-16T00:48:41.337Z,100193.69
2023-04-16T00:51:09.116Z,100204.09
2023-04-16T00:53:36.328Z,100206.72
2023-04-16T00:56:04.764Z,100206.72
2023-04-16T00:58:32.789Z,100212.69
2023-04-16T01:01:00.126Z,100213.47
2023-04-16T01:03:36.694Z,100205.78
2023-04-16T01:06:03.824Z,100213.56
2023-04-16T01:08:30.644Z,100212.63
2023-04-16T01:10:57.565Z,100212.69
2023-04-16T01:13:24.394Z,100216.97
2023-04-16T01:15:51.957Z,100206.63
2023-04-16T01:18:20.822Z,100211.78
2023-04-16T01:20:48.544Z,100204.81
2023-04-16T01:23:16.067Z,100213.38
2023-04-16T01:25:43.648Z,100220.22
2023-04-16T01:28:10.787Z,100224.53
2023-04-16T01:30:37.725Z,100228.00
2023-04-16T01:33:13.915Z,100220.25
2023-04-16T01:35:41.617Z,100215.09
2023-04-16T01:38:09.234Z,100221.09
2023-04-16T01:40:37.324Z,100210.78
2023-04-16T01:43:04.533Z,100217.69
2023-04-16T01:45:32.064Z,100197.78
2023-04-16T01:47:59.032Z,100216.81
2023-04-16T01:50:26.093Z,100210.75
2023-04-16T01:52:53.024Z,100212.41
2023-04-16T01:55:20.576Z,100220.97
2023-04-16T01:57:47.522Z,100214.09
2023-04-16T02:00:15.322Z,100204.59
2023-04-16T02:02:45.544Z,100219.25
2023-04-16T02:05:16.887Z,100208.91
2023-04-16T02:07:43.824Z,100215.81
2023-04-16T02:10:10.688Z,100208.91
2023-04-16T02:12:39.655Z,100208.91
2023-04-16T02:15:07.228Z,100208.91
2023-04-16T02:17:34.831Z,100206.28
2023-04-16T02:20:10.284Z,100214.94
2023-04-16T02:22:43.984Z,100215.78
2023-04-16T02:25:14.482Z,100208.84
2023-04-16T02:27:42.495Z,100210.59
2023-04-16T02:30:29.150Z,100204.50
2023-04-16T02:32:56.140Z,100217.50
2023-04-16T02:35:23.199Z,100205.47
2023-04-16T02:37:50.031Z,100219.25
2023-04-16T02:40:17.135Z,100214.94
2023-04-16T02:42:43.972Z,100216.69
2023-04-16T02:45:11.774Z,100211.44
2023-04-16T02:47:38.650Z,100212.22
2023-04-16T02:50:06.360Z,100213.16
2023-04-16T02:52:33.794Z,100223.47
2023-04-16T02:55:00.932Z,100222.63
2023-04-16T02:57:27.833Z,100221.75
2023-04-16T02:59:54.609Z,100208.00
2023-04-16T03:02:21.941Z,100219.13
2023-04-16T03:04:48.894Z,100220.03
2023-04-16T03:07:16.031Z,100220.03
2023-04-16T03:09:42.948Z,100226.88
2023-04-16T03:12:09.833Z,100237.28
2023-04-16T03:14:36.630Z,100228.59
2023-04-16T03:17:03.498Z,100231.19
2023-04-16T03:19:30.493Z,100223.47
2023-04-16T03:21:57.420Z,100229.41
2023-04-16T03:24:24.382Z,100222.50
2023-04-16T03:26:51.212Z,100228.53
2023-04-16T03:29:21.190Z,100220.78
2023-04-16T03:31:48.494Z,100230.28
2023-04-16T03:34:16.025Z,100228.50
2023-04-16T03:36:42.973Z,100234.59
2023-04-16T03:39:10.047Z,100232.84
2023-04-16T03:41:37.282Z,100235.44
2023-04-16T03:44:04.109Z,100228.47
2023-04-16T03:46:33.217Z,100241.47
2023-04-16T03:49:00.486Z,100241.41
2023-04-16T03:51:28.225Z,100245.72
2023-04-16T03:53:56.292Z,100238.88
2023-04-16T03:56:25.190Z,100226.75
2023-04-16T03:58:53.011Z,100234.53
2023-04-16T04:01:19.812Z,100225.03
2023-04-16T04:03:47.285Z,100246.38
2023-04-16T04:06:15.074Z,100241.41
2023-04-16T04:08:42.042Z,100242.19
2023-04-16T04:11:08.837Z,100240.44
2023-04-16T04:13:36.506Z,100250.03
2023-04-16T04:16:04.811Z,100251.63
2023-04-16T04:18:32.381Z,100246.59
2023-04-16T04:20:59.823Z,100255.94
2023-04-16T04:23:31.067Z,100268.91
2023-04-16T04:25:58.108Z,100262.88
2023-04-16T04:28:25.074Z,100277.34
2023-04-16T04:30:52.046Z,100271.50
2023-04-16T04:33:19.183Z,100275.75
2023-04-16T04:35:48.335Z,100279.25
2023-04-16T04:38:19.822Z,100261.97
2023-04-16T04:40:49.226Z,100263.59
2023-04-16T04:43:18.329Z,100273.94
2023-04-16T04:45:46.049Z,100282.56
2023-04-16T04:48:13.699Z,100281.72
2023-04-16T04:50:41.582Z,100282.59
2023-04-16T04:53:12.160Z,100287.81
2023-04-16T04:55:39.749Z,100277.34
2023-04-16T04:58:07.199Z,100287.75
2023-04-16T05:00:35.708Z,100266.19
2023-04-16T05:03:04.245Z,100281.72
2023-04-16T05:05:31.205Z,100286.03
2023-04-16T05:07:58.051Z,100286.78
2023-04-16T05:10:24.962Z,100284.31
2023-04-16T05:12:52.136Z,100282.59
2023-04-16T05:15:19.058Z,100286.88
2023-04-16T05:17:46.094Z,100292.06
2023-04-16T05:20:13.032Z,100293.84
2023-04-16T05:22:39.922Z,100301.63
2023-04-16T05:25:07.104Z,100300.69
2023-04-16T05:27:33.909Z,100303.34
2023-04-16T05:30:00.917Z,100295.59
2023-04-16T05:32:27.989Z,100296.44
2023-04-16T05:34:55.070Z,100314.47
2023-04-16T05:37:21.857Z,100317.94
2023-04-16T05:39:48.993Z,100321.38
2023-04-16T05:42:15.829Z,100313.69
2023-04-16T05:44:42.704Z,100312.88
2023-04-16T05:47:09.596Z,100322.22
2023-04-16T05:52:37.154Z,100312.88
2023-04-16T05:55:04.370Z,100320.53
2023-04-16T05:57:31.360Z,100327.34
2023-04-16T05:59:58.090Z,100321.47
2023-04-16T06:02:25.295Z,100325.81
2023-04-16T06:04:52.182Z,100333.53
2023-04-16T06:07:19.028Z,100329.28
2023-04-16T06:09:45.913Z,100332.66
2023-04-16T06:12:12.818Z,100337.81
2023-04-16T06:14:39.692Z,100337.78
2023-04-16T06:17:06.780Z,100337.03
2023-04-16T06:19:33.623Z,100339.59
2023-04-16T06:22:00.727Z,100340.44
2023-04-16T06:24:27.552Z,100349.03
2023-04-16T06:26:54.751Z,100352.59
2023-04-16T06:29:25.871Z,100352.56
2023-04-16T06:31:57.597Z,100343.19
2023-04-16T06:34:24.571Z,100346.75
2023-04-16T06:36:51.628Z,100353.66
2023-04-16T06:39:18.797Z,100356.19
2023-04-16T06:41:46.052Z,100352.66
2023-04-16T06:44:12.922Z,100351.81
2023-04-16T06:46:39.756Z,100358.63
2023-04-16T06:49:07.456Z,100360.50
2023-04-16T06:51:34.406Z,100367.25
2023-04-16T06:54:01.422Z,100362.25
2023-04-16T06:56:28.382Z,100351.69
2023-04-16T06:58:57.207Z,100356.13
2023-04-16T07:01:24.173Z,100367.38
2023-04-16T07:03:51.404Z,100370.78
2023-04-16T07:06:18.323Z,100362.34
2023-04-16T07:08:45.432Z,100375.28
2023-04-16T07:11:12.254Z,100361.53
2023-04-16T07:13:39.192Z,100375.59
2023-04-16T07:16:06.174Z,100376.47
2023-04-16T07:18:33.126Z,100372.91
2023-04-16T07:20:59.980Z,100378.06
2023-04-16T07:23:26.799Z,100362.53
2023-04-16T07:25:53.709Z,100369.63
2023-04-16T07:28:20.855Z,100379.97
2023-04-16T07:30:47.749Z,100372.16
2023-04-16T07:33:14.535Z,100380.91
2023-04-16T07:35:41.374Z,100375.78
2023-04-16T07:38:08.265Z,100376.59
2023-04-16T07:40:36.263Z,100382.72
2023-04-16T07:43:03.326Z,100372.38
2023-04-16T07:45:31.424Z,100380.16
2023-04-16T07:47:58.375Z,100386.25
2023-04-16T07:50:25.677Z,100391.44
2023-04-16T07:52:52.573Z,100407.72
2023-04-16T07:55:19.842Z,100394.69
2023-04-16T07:57:46.762Z,100397.38
2023-04-16T08:00:13.830Z,100395.75
2023-04-16T08:02:41.552Z,100411.19
2023-04-16T08:05:08.896Z,100388.78
2023-04-16T08:07:35.926Z,100397.53
2023-04-16T08:10:02.818Z,100401.84
2023-04-16T08:12:30.004Z,100411.44
2023-04-16T08:14:56.851Z,100407.03
2023-04-16T08:17:23.733Z,100410.59
2023-04-16T08:19:50.832Z,100415.03
2023-04-16T08:22:20.970Z,100411.91
2023-04-16T08:24:50.930Z,100418.97
2023-04-16T08:27:20.007Z,100427.50
2023-04-16T08:29:47.969Z,100412.88
2023-04-16T08:32:14.970Z,100412.06
2023-04-16T08:34:42.665Z,100419.69
2023-04-16T08:37:10.208Z,100420.56
2023-04-16T08:39:37.773Z,100399.72
2023-04-16T08:42:06.220Z,100419.59
2023-04-16T08:44:35.471Z,100433.38
2023-04-16T08:47:03.018Z,100413.53
2023-04-16T08:49:30.234Z,100438.63
2023-04-16T08:51:57.207Z,100441.41
2023-04-16T08:54:46.864Z,100430.94
2023-04-16T08:57:24.390Z,100435.44
2023-04-16T08:59:52.057Z,100442.31
2023-04-16T09:02:19.345Z,100443.06
2023-04-16T09:04:47.294Z,100442.19
2023-04-16T09:07:15.029Z,100435.38
2023-04-16T09:09:42.434Z,100446.66
2023-04-16T09:12:09.723Z,100437.22
2023-04-16T09:14:38.270Z,100443.31
2023-04-16T09:17:06.557Z,100449.31
2023-04-16T09:19:33.460Z,100431.28
2023-04-16T09:22:00.490Z,100449.47
2023-04-16T09:24:27.404Z,100456.28
2023-04-16T09:26:55.017Z,100465.78
2023-04-16T09:29:42.010Z,100452.47
2023-04-16T09:32:11.104Z,100449.16
2023-04-16T09:34:58.596Z,100460.19
2023-04-16T09:37:27.167Z,100458.75
2023-04-16T09:39:57.227Z,100472.34
2023-04-16T09:42:27.184Z,100464.72
2023-04-16T09:44:55.474Z,100478.44
2023-04-16T09:47:25.830Z,100472.53
2023-04-16T09:49:53.144Z,100470.94
2023-04-16T09:52:23.545Z,100462.34
2023-04-16T09:54:51.658Z,100476.09
2023-04-16T09:57:21.074Z,100470.03
2023-04-16T09:59:54.916Z,100476.94
2023-04-16T10:02:23.367Z,100476.25
2023-04-16T10:04:51.779Z,100484.00
2023-04-16T10:07:19.280Z,100455.44
2023-04-16T10:09:48.634Z,100481.66
2023-04-16T10:12:16.224Z,100471.47
2023-04-16T10:14:43.292Z,100475.00
2023-04-16T10:17:10.372Z,100479.34
2023-04-16T10:19:37.555Z,100486.19
2023-04-16T10:22:04.935Z,100496.41
2023-04-16T10:24:33.102Z,100483.53
2023-04-16T10:27:00.504Z,100481.88
2023-04-16T10:29:28.936Z,100487.97
2023-04-16T10:31:56.873Z,100483.56
2023-04-16T10:34:24.884Z,100499.81
2023-04-16T10:36:53.095Z,100499.75
2023-04-16T10:39:24.926Z,100500.56
2023-04-16T10:41:51.845Z,100519.69
2023-04-16T10:44:19.656Z,100485.91
2023-04-16T10:46:50.935Z,100495.44
2023-04-16T10:49:24.738Z,100502.34
2023-04-16T10:51:57.738Z,100507.38
2023-04-16T10:54:31.602Z,100505.72
2023-04-16T10:57:02.982Z,100502.41
2023-04-16T10:59:33.762Z,100504.13
2023-04-16T11:02:02.650Z,100521.59
2023-04-16T11:04:34.403Z,100528.47
2023-04-16T11:07:06.374Z,100496.50
2023-04-16T11:10:13.013Z,100521.59
2023-04-16T11:12:47.449Z,100523.22
2023-04-16T11:15:15.957Z,100525.97
2023-04-16T11:17:51.776Z,100523.91
2023-04-16T11:20:23.782Z,100530.06
2023-04-16T11:22:51.200Z,100540.34
2023-04-16T11:25:23.228Z,100550.75
2023-04-16T11:27:50.854Z,100526.69
2023-04-16T11:30:18.282Z,100543.16
2023-04-16T11:32:45.820Z,100537.16
2023-04-16T11:35:17.565Z,100538.81
2023-04-16T11:37:45.234Z,100547.44
2023-04-16T11:40:13.076Z,100546.63
2023-04-16T11:42:41.146Z,100557.91
2023-04-16T11:45:09.653Z,100548.31
2023-04-16T11:47:47.595Z,100548.50
2023-04-16T11:50:23.305Z,100552.75
2023-04-16T11:52:51.828Z,100568.22
2023-04-16T11:55:19.618Z,100564.72
2023-04-16T11:57:46.911Z,100567.28
2023-04-16T12:00:14.750Z,100551.53
2023-04-16T12:02:43.964Z,100567.16
2023-04-16T12:05:35.197Z,100556.16
2023-04-16T12:08:03.980Z,100515.47
2023-04-16T12:10:35.162Z,100541.59
2023-04-16T12:13:22.079Z,100535.50
2023-04-16T12:15:51.154Z,100555.41
2023-04-16T12:18:20.297Z,100562.34
2023-04-16T12:20:47.780Z,100554.59
2023-04-16T12:23:34.516Z,100558.81
2023-04-16T12:26:12.295Z,100556.94
2023-04-16T12:28:40.344Z,100560.31
2023-04-16T12:31:07.349Z,100555.31
2023-04-16T12:33:34.315Z,100580.31
2023-04-16T12:36:01.903Z,100564.69
2023-04-16T12:38:29.485Z,100575.16
2023-04-16T12:40:57.811Z,100548.94
2023-04-16T12:43:25.267Z,100563.88
2023-04-16T12:45:52.203Z,100582.94
2023-04-16T12:48:19.338Z,100582.09
2023-04-16T12:50:46.618Z,100576.94
2023-04-16T12:53:13.549Z,100571.88
2023-04-16T12:55:40.335Z,100573.59
2023-04-16T12:58:07.220Z,100568.16
2023-04-16T13:00:34.056Z,100567.84
2023-04-16T13:03:01.031Z,100554.19
2023-04-16T13:05:28.186Z,100558.63
2023-04-16T13:07:55.152Z,100571.44
2023-04-16T13:10:23.509Z,100580.94
2023-04-16T13:12:50.427Z,100599.41
2023-04-16T13:15:17.202Z,100574.25
2023-04-16T13:17:44.144Z,100599.31
2023-04-16T13:20:11.221Z,100583.50
2023-04-16T13:22:39.393Z,100577.41
2023-04-16T13:25:06.977Z,100593.25
2023-04-16T13:27:33.797Z,100586.34
2023-04-16T13:30:01.019Z,100607.03
2023-04-16T13:32:27.972Z,100595.84
2023-04-16T13:34:54.898Z,100611.31
2023-04-16T13:37:21.718Z,100596.47
2023-04-16T13:39:48.588Z,100571.38
2023-04-16T13:42:15.492Z,100598.50
2023-04-16T13:44:42.733Z,100590.81
2023-04-16T13:47:09.694Z,100589.06
2023-04-16T13:49:36.631Z,100589.94
2023-04-16T13:52:03.780Z,100601.94
2023-04-16T13:54:30.908Z,100603.63
2023-04-16T13:56:57.785Z,100586.44
2023-04-16T13:59:24.683Z,100599.31
2023-04-16T14:01:51.747Z,100590.94
2023-04-16T14:04:18.891Z,100599.47
2023-04-16T14:06:46.076Z,100584.84
2023-04-16T14:09:13.129Z,100595.34
2023-04-16T14:11:40.229Z,100590.16
2023-04-16T14:14:07.175Z,100596.78
2023-04-16T14:16:35.488Z,100585.53
2023-04-16T14:19:02.911Z,100601.97
2023-04-16T14:24:31.979Z,100600.41
2023-04-16T14:26:58.911Z,100603.56
2023-04-16T14:29:26.180Z,100615.81
2023-04-16T14:40:58.070Z,100600.78
2023-04-16T14:43:25.012Z,100597.38
2023-04-16T14:45:52.868Z,100581.72
2023-04-16T14:48:20.859Z,100595.44
2023-04-16T14:50:47.745Z,100611.88
2023-04-16T14:53:14.648Z,100613.47
2023-04-16T14:55:41.540Z,100607.38
2023-04-16T14:58:08.619Z,100610.91
2023-04-16T15:00:35.737Z,100601.19
2023-04-16T15:03:03.872Z,100604.00
2023-04-16T15:05:31.992Z,100607.63
2023-04-16T15:07:59.000Z,100611.94
2023-04-16T15:10:25.926Z,100614.38
2023-04-16T15:12:52.772Z,100626.75
2023-04-16T15:15:19.803Z,100627.72
2023-04-16T15:17:46.922Z,100634.31
2023-04-16T15:20:14.129Z,100631.00
2023-04-16T15:22:41.101Z,100619.56
2023-04-16T15:25:08.629Z,100628.09
2023-04-16T15:27:36.514Z,100631.63
2023-04-16T15:30:03.664Z,100646.34
2023-04-16T15:32:31.249Z,100636.78
2023-04-16T15:34:58.184Z,100635.97
2023-04-16T15:37:25.050Z,100632.59
2023-04-16T15:39:51.847Z,100636.94
2023-04-16T15:42:18.702Z,100636.03
2023-04-16T15:44:45.608Z,100642.97
2023-04-16T15:47:12.413Z,100647.28
2023-04-16T15:49:39.333Z,100638.56
2023-04-16T15:52:06.324Z,100645.44
2023-04-16T15:54:33.209Z,100649.69
2023-04-16T15:57:00.126Z,100648.94
2023-04-16T15:59:27.109Z,100648.22
2023-04-16T16:01:53.985Z,100637.78
2023-04-16T16:04:26.427Z,100654.97
2023-04-16T16:06:54.312Z,100635.75
2023-04-16T16:09:26.184Z,100665.84
2023-04-16T16:11:54.384Z,100653.81
2023-04-16T16:14:22.860Z,100663.22
2023-04-16T16:16:50.064Z,100660.53
2023-04-16T16:19:17.610Z,100654.50
2023-04-16T16:21:44.467Z,100663.22
2023-04-16T16:24:11.508Z,100669.25
2023-04-16T16:26:38.289Z,100663.28
2023-04-16T16:29:05.746Z,100660.72
2023-04-16T16:31:32.709Z,100665.84
2023-04-16T16:33:59.792Z,100675.09
2023-04-16T16:36:27.471Z,100669.97
2023-04-16T16:38:55.253Z,100665.53
2023-04-16T16:41:22.615Z,100669.03
2023-04-16T16:43:50.368Z,100666.44
2023-04-16T16:46:17.232Z,100676.66
2023-04-16T16:48:44.129Z,100670.47
2023-04-16T16:51:12.578Z,100677.31
2023-04-16T16:53:39.940Z,100684.34
2023-04-16T16:56:06.802Z,100674.78
2023-04-16T16:58:33.607Z,100681.59
2023-04-16T17:01:00.633Z,100677.22
2023-04-16T17:03:27.596Z,100672.97
2023-04-16T17:05:56.606Z,100682.69
2023-04-16T17:08:23.889Z,100682.47
2023-04-16T17:10:51.456Z,100686.53
2023-04-16T17:13:21.527Z,100680.41
2023-04-16T17:15:48.432Z,100680.38
2023-04-16T17:18:16.210Z,100685.22
2023-04-16T17:20:43.077Z,100684.13
2023-04-16T17:23:10.462Z,100693.72
2023-04-16T17:25:37.339Z,100697.19
2023-04-16T17:28:05.131Z,100698.00
2023-04-16T17:30:32.375Z,100698.00
2023-04-16T17:33:00.109Z,100708.19
2023-04-16T17:35:27.510Z,100696.00
2023-04-16T17:37:54.392Z,100702.88
2023-04-16T17:40:21.255Z,100698.50
2023-04-16T17:42:49.220Z,100705.22
2023-04-16T17:45:16.967Z,100708.59
2023-04-16T17:47:46.898Z,100705.88
2023-04-16T17:50:16.810Z,100706.69
2023-04-16T17:52:43.763Z,100712.63
2023-04-16T17:55:11.935Z,100714.28
2023-04-16T17:57:38.880Z,100717.66
2023-04-16T18:00:12.724Z,100711.59
2023-04-16T18:02:41.270Z,100716.75
2023-04-16T18:05:08.896Z,100716.50
2023-04-16T18:07:36.538Z,100724.22
2023-04-16T18:10:08.633Z,100715.53
2023-04-16T18:12:36.286Z,100709.25
2023-04-16T18:15:03.636Z,100717.75
2023-04-16T18:17:30.618Z,100715.13
2023-04-16T18:19:58.265Z,100726.09
2023-04-16T18:22:27.388Z,100722.56
2023-04-16T18:24:54.983Z,100727.63
2023-04-16T18:27:22.092Z,100741.38
2023-04-16T18:29:49.485Z,100730.94
2023-04-16T18:32:16.797Z,100741.25
2023-04-16T18:34:44.254Z,100735.97
2023-04-16T18:37:11.344Z,100747.03
2023-04-16T18:39:38.230Z,100750.47
2023-04-16T18:42:05.321Z,100746.94
2023-04-16T18:44:32.232Z,100750.22
2023-04-16T18:46:59.153Z,100752.78
2023-04-16T18:49:26.201Z,100751.91
2023-04-16T18:51:55.986Z,100750.09
2023-04-16T18:54:23.111Z,100760.56
2023-04-16T18:56:50.072Z,100760.56
2023-04-16T18:59:16.891Z,100757.13
2023-04-16T19:01:43.965Z,100755.41
2023-04-16T19:04:10.936Z,100763.22
2023-04-16T19:06:38.487Z,100763.31
2023-04-16T19:09:05.832Z,100771.78
2023-04-16T19:11:36.444Z,100761.50
2023-04-16T19:14:06.041Z,100763.84
2023-04-16T19:16:36.431Z,100763.84
2023-04-16T19:19:05.548Z,100766.63
2023-04-16T19:21:33.218Z,100763.97
2023-04-16T19:24:02.687Z,100765.72
2023-04-16T19:26:30.832Z,100769.97
2023-04-16T19:29:00.367Z,100768.16
2023-04-16T19:31:40.295Z,100772.34
2023-04-16T19:34:10.099Z,100773.44
2023-04-16T19:36:41.953Z,100778.63
2023-04-16T19:39:16.958Z,100780.22
2023-04-16T19:41:51.143Z,100780.13
2023-04-16T19:44:24.475Z,100774.22
2023-04-16T19:46:56.721Z,100781.06
2023-04-16T19:49:36.107Z,100782.06
2023-04-16T19:52:05.466Z,100779.91
2023-04-16T19:54:36.117Z,100773.88
2023-04-16T19:57:12.483Z,100785.09
2023-04-16T19:59:41.647Z,100775.56
2023-04-16T20:02:15.322Z,100781.38
2023-04-16T20:04:56.325Z,100792.63
2023-04-16T20:07:27.494Z,100771.97
2023-04-16T20:10:00.654Z,100773.72
2023-04-16T20:12:31.158Z,100764.13
2023-04-16T20:15:01.698Z,100780.44
2023-04-16T20:17:31.703Z,100775.19
2023-04-16T20:20:01.095Z,100781.34
2023-04-16T20:22:28.177Z,100786.50
2023-04-16T20:24:55.165Z,100787.41
2023-04-16T20:27:22.088Z,100789.03
2023-04-16T20:29:48.926Z,100779.59
2023-04-16T20:32:15.901Z,100779.50
2023-04-16T20:34:42.996Z,100784.03
2023-04-16T20:37:09.839Z,100787.34
2023-04-16T20:39:37.005Z,100788.25
2023-04-16T20:42:04.414Z,100793.53
2023-04-16T20:44:40.526Z,100787.34
2023-04-16T20:47:08.822Z,100790.97
2023-04-16T20:49:35.820Z,100787.66
2023-04-16T20:52:02.879Z,100789.63
2023-04-16T20:54:30.460Z,100792.41
2023-04-16T20:56:57.844Z,100790.75
2023-04-16T20:59:25.405Z,100791.56
2023-04-16T21:01:52.472Z,100793.91
2023-04-16T21:04:19.577Z,100796.38
2023-04-16T21:06:47.040Z,100795.59
2023-04-16T21:09:13.828Z,100790.50
2023-04-16T21:11:40.849Z,100797.44
2023-04-16T21:14:07.673Z,100791.41
2023-04-16T21:16:34.585Z,100795.41
2023-04-16T21:19:01.520Z,100804.00
2023-04-16T21:21:28.415Z,100798.19
2023-04-16T21:23:55.563Z,100791.16
2023-04-16T21:26:22.499Z,100791.78
2023-04-16T21:28:49.365Z,100797.06
2023-04-16T21:31:16.488Z,100784.19
2023-04-16T21:33:43.483Z,100799.53
2023-04-16T21:36:10.873Z,100798.56
2023-04-16T21:38:37.878Z,100795.03
2023-04-16T21:41:04.783Z,100793.28
2023-04-16T21:43:32.227Z,100795.88
2023-04-16T21:45:59.622Z,100782.97
2023-04-16T21:48:28.451Z,100788.81
2023-04-16T21:51:00.147Z,100779.19
2023-04-16T21:53:28.179Z,100796.53
2023-04-16T21:55:55.047Z,100789.78
2023-04-16T21:58:21.864Z,100789.81
2023-04-16T22:00:48.769Z,100786.47
2023-04-16T22:03:17.437Z,100775.94
2023-04-16T22:05:45.953Z,100786.41
2023-04-16T22:08:23.892Z,100784.75
2023-04-16T22:10:51.712Z,100784.88
2023-04-16T22:13:18.608Z,100782.25
2023-04-16T22:15:45.483Z,100786.59
2023-04-16T22:18:12.458Z,100789.31
2023-04-16T22:20:39.896Z,100792.81
2023-04-16T22:23:07.359Z,100791.03
2023-04-16T22:25:34.178Z,100792.03
2023-04-16T22:28:01.684Z,100787.84
2023-04-16T22:30:28.587Z,100778.31
2023-04-16T22:32:55.528Z,100797.34
2023-04-16T22:35:22.448Z,100787.00
2023-04-16T22:37:49.310Z,100782.63
2023-04-16T22:40:16.698Z,100793.00
2023-04-16T22:42:43.598Z,100789.59
2023-04-16T22:45:11.120Z,100797.25
2023-04-16T22:47:38.034Z,100800.78
2023-04-16T22:50:06.347Z,100806.78
2023-04-16T22:52:33.154Z,100812.00
2023-04-16T22:55:00.004Z,100814.19
2023-04-16T22:57:26.817Z,100804.75
2023-04-16T22:59:53.786Z,100810.03
2023-04-16T23:02:21.199Z,100815.47
2023-04-16T23:04:48.167Z,100813.03
2023-04-16T23:07:16.309Z,100817.44
2023-04-16T23:09:43.057Z,100814.00
2023-04-16T23:12:09.945Z,100818.13
2023-04-16T23:14:37.078Z,100810.38
2023-04-16T23:17:03.948Z,100812.22
2023-04-16T23:19:31.764Z,100807.91
2023-04-16T23:21:58.875Z,100814.88
2023-04-16T23:24:25.678Z,100815.00
2023-04-16T23:26:52.809Z,100810.75
2023-04-16T23:29:20.720Z,100820.09
2023-04-16T23:31:47.944Z,100815.69
2023-04-16T23:34:14.858Z,100817.56
2023-04-16T23:36:41.810Z,100814.22
2023-04-16T23:39:08.918Z,100816.84
2023-04-16T23:41:35.757Z,100814.19
2023-04-16T23:44:02.866Z,100824.44
2023-04-16T23:46:29.775Z,100815.13
2023-04-16T23:48:56.791Z,100816.81
2023-04-16T23:51:23.566Z,100815.13
2023-04-16T23:53:50.353Z,100819.41
2023-04-16T23:56:17.390Z,100808.16
2023-04-16T23:58:44.235Z,100815.00
